TimeCDT,TemperatureF,Dew PointF,Humidity,Sea Level PressureIn,VisibilityMPH,Wind Direction,Wind SpeedMPH,Gust SpeedMPH,PrecipitationIn,Events,Conditions,WindDirDegrees,DateUTC
12:15 AM,71.6,64.4,78,29.94,10.0,SW,6.9,-,N/A,,Clear,220,2013-07-07 05:15:00
12:35 AM,71.6,64.4,78,29.94,10.0,SW,9.2,-,N/A,,Clear,220,2013-07-07 05:35:00
12:55 AM,71.6,64.4,78,29.93,10.0,SW,6.9,-,N/A,,Clear,230,2013-07-07 05:55:00
1:15 AM,69.8,66.2,88,29.93,9.0,SW,6.9,-,N/A,,Clear,220,2013-07-07 06:15:00
1:35 AM,69.8,66.2,88,29.92,9.0,SW,8.1,-,N/A,,Clear,220,2013-07-07 06:35:00
1:55 AM,71.6,66.2,83,29.92,8.0,SW,6.9,-,N/A,,Clear,230,2013-07-07 06:55:00
2:15 AM,69.8,66.2,88,29.92,8.0,SW,6.9,-,N/A,,Clear,220,2013-07-07 07:15:00
2:35 AM,69.8,66.2,88,29.92,8.0,SW,6.9,-,N/A,,Clear,220,2013-07-07 07:35:00
2:55 AM,69.8,66.2,88,29.91,7.0,SW,8.1,-,N/A,,Clear,230,2013-07-07 07:55:00
3:15 AM,71.6,66.2,83,29.92,7.0,SW,6.9,-,N/A,,Clear,230,2013-07-07 08:15:00
3:35 AM,69.8,66.2,88,29.92,8.0,SW,6.9,-,N/A,,Clear,230,2013-07-07 08:35:00
3:55 AM,71.6,66.2,83,29.92,8.0,West,5.8,-,N/A,,Clear,260,2013-07-07 08:55:00
4:15 AM,71.6,64.4,78,29.92,8.0,WSW,8.1,-,N/A,,Clear,250,2013-07-07 09:15:00
4:35 AM,71.6,64.4,78,29.92,8.0,WSW,6.9,-,N/A,,Clear,240,2013-07-07 09:35:00
4:55 AM,71.6,64.4,78,29.93,8.0,WSW,5.8,-,N/A,,Clear,250,2013-07-07 09:55:00
5:15 AM,71.6,64.4,78,29.93,7.0,WSW,4.6,-,N/A,,Clear,240,2013-07-07 10:15:00
5:35 AM,69.8,64.4,83,29.92,7.0,WSW,4.6,-,N/A,,Clear,240,2013-07-07 10:35:00
5:55 AM,71.6,64.4,78,29.92,5.0,SW,5.8,-,N/A,,Clear,220,2013-07-07 10:55:00
6:15 AM,69.8,64.4,83,29.92,6.0,SW,8.1,-,N/A,,Clear,220,2013-07-07 11:15:00
6:35 AM,69.8,64.4,83,29.92,7.0,SW,9.2,-,N/A,,Clear,230,2013-07-07 11:35:00
6:55 AM,71.6,64.4,78,29.93,7.0,SW,9.2,-,N/A,,Clear,230,2013-07-07 11:55:00
7:15 AM,71.6,66.2,83,29.93,7.0,WSW,8.1,-,N/A,,Clear,240,2013-07-07 12:15:00
7:35 AM,71.6,66.2,83,29.93,7.0,WSW,8.1,-,N/A,,Scattered Clouds,240,2013-07-07 12:35:00
7:55 AM,73.4,66.2,78,29.93,8.0,WSW,9.2,-,N/A,,Partly Cloudy,240,2013-07-07 12:55:00
8:15 AM,73.4,66.2,78,29.94,8.0,WSW,6.9,-,N/A,,Partly Cloudy,250,2013-07-07 13:15:00
8:35 AM,73.4,66.2,78,29.94,7.0,SW,6.9,-,N/A,,Clear,230,2013-07-07 13:35:00
8:55 AM,73.4,66.2,78,29.93,8.0,WSW,5.8,-,N/A,,Clear,250,2013-07-07 13:55:00
9:15 AM,73.4,66.2,78,29.94,8.0,SW,3.5,-,N/A,,Scattered Clouds,220,2013-07-07 14:15:00
9:35 AM,73.4,68.0,83,29.94,7.0,Calm,Calm,-,N/A,,Scattered Clouds,0,2013-07-07 14:35:00
9:55 AM,73.4,68.0,83,29.94,7.0,NW,3.5,-,N/A,,Scattered Clouds,320,2013-07-07 14:55:00
10:15 AM,73.4,66.2,78,29.94,8.0,NW,3.5,-,N/A,,Partly Cloudy,320,2013-07-07 15:15:00
10:35 AM,75.2,68.0,78,29.93,7.0,Calm,Calm,-,N/A,,Clear,0,2013-07-07 15:35:00
10:55 AM,75.2,69.8,83,29.92,8.0,WNW,3.5,-,N/A,,Clear,290,2013-07-07 15:55:00
11:15 AM,75.2,69.8,83,29.92,8.0,SW,4.6,-,N/A,,Clear,230,2013-07-07 16:15:00
11:35 AM,75.2,69.8,83,29.91,8.0,WSW,5.8,-,N/A,,Clear,240,2013-07-07 16:35:00
11:55 AM,77.0,69.8,78,29.90,8.0,SW,6.9,-,N/A,,Clear,220,2013-07-07 16:55:00
12:15 PM,77.0,69.8,78,29.90,8.0,SW,8.1,-,N/A,,Clear,230,2013-07-07 17:15:00
12:35 PM,78.8,69.8,74,29.90,8.0,WSW,9.2,-,N/A,,Clear,240,2013-07-07 17:35:00
12:55 PM,78.8,69.8,74,29.90,8.0,SW,11.5,-,N/A,,Clear,220,2013-07-07 17:55:00
1:15 PM,78.8,71.6,78,29.90,8.0,WSW,8.1,-,N/A,,Clear,250,2013-07-07 18:15:00
1:35 PM,78.8,71.6,78,29.89,7.0,SSW,11.5,-,N/A,,Clear,210,2013-07-07 18:35:00
1:55 PM,80.6,71.6,74,29.89,7.0,SSW,9.2,16.1,N/A,,Clear,210,2013-07-07 18:55:00
2:15 PM,80.6,71.6,74,29.89,8.0,SW,9.2,-,N/A,,Clear,230,2013-07-07 19:15:00
2:35 PM,80.6,71.6,74,29.89,8.0,SW,9.2,-,N/A,,Clear,230,2013-07-07 19:35:00
2:55 PM,82.4,69.8,66,29.89,8.0,SW,13.8,-,N/A,,Partly Cloudy,220,2013-07-07 19:55:00
3:15 PM,80.6,69.8,70,29.89,8.0,SW,11.5,-,N/A,,Scattered Clouds,220,2013-07-07 20:15:00
3:35 PM,82.4,71.6,70,29.89,9.0,SW,10.4,16.1,N/A,,Mostly Cloudy,230,2013-07-07 20:35:00
3:55 PM,82.4,71.6,70,29.89,7.0,WSW,9.2,-,N/A,,Partly Cloudy,240,2013-07-07 20:55:00
4:15 PM,82.4,71.6,70,29.89,8.0,SW,8.1,-,N/A,,Partly Cloudy,230,2013-07-07 21:15:00
4:35 PM,82.4,71.6,70,29.89,8.0,SW,6.9,-,N/A,,Scattered Clouds,230,2013-07-07 21:35:00
4:55 PM,82.4,73.4,74,29.89,7.0,SW,5.8,-,N/A,,Scattered Clouds,230,2013-07-07 21:55:00
5:15 PM,80.6,73.4,79,29.89,8.0,SW,4.6,-,N/A,,Scattered Clouds,230,2013-07-07 22:15:00
5:35 PM,82.4,73.4,74,29.88,8.0,SSW,6.9,-,N/A,,Scattered Clouds,210,2013-07-07 22:35:00
5:55 PM,82.4,71.6,70,29.88,8.0,WSW,5.8,-,N/A,,Partly Cloudy,240,2013-07-07 22:55:00
6:15 PM,80.6,71.6,74,29.88,8.0,SW,4.6,-,N/A,,Scattered Clouds,230,2013-07-07 23:15:00
6:35 PM,80.6,73.4,79,29.88,7.0,SW,4.6,-,N/A,,Partly Cloudy,220,2013-07-07 23:35:00
6:55 PM,80.6,73.4,79,29.89,8.0,Calm,Calm,-,N/A,,Partly Cloudy,0,2013-07-07 23:55:00
7:15 PM,80.6,73.4,79,29.88,7.0,SSW,3.5,-,N/A,,Mostly Cloudy,200,2013-07-08 00:15:00
7:35 PM,80.6,73.4,79,29.88,5.0,SSE,3.5,-,N/A,,Overcast,160,2013-07-08 00:35:00
7:55 PM,80.6,71.6,74,29.88,7.0,SSE,3.5,-,N/A,,Overcast,150,2013-07-08 00:55:00
8:15 PM,78.8,71.6,78,29.89,4.0,Calm,Calm,-,N/A,,Overcast,0,2013-07-08 01:15:00
8:35 PM,75.2,71.6,89,29.89,5.0,Calm,Calm,-,N/A,,Overcast,0,2013-07-08 01:35:00
8:55 PM,75.2,71.6,89,29.90,5.0,ENE,3.5,-,N/A,,Scattered Clouds,60,2013-07-08 01:55:00
9:15 PM,75.2,69.8,83,29.91,5.0,Calm,Calm,-,N/A,,Scattered Clouds,0,2013-07-08 02:15:00
9:35 PM,73.4,69.8,88,29.91,5.0,Calm,Calm,-,N/A,,Scattered Clouds,0,2013-07-08 02:35:00
9:55 PM,75.2,71.6,89,29.91,5.0,Calm,Calm,-,N/A,,Partly Cloudy,0,2013-07-08 02:55:00
10:15 PM,71.6,71.6,100,29.91,5.0,Calm,Calm,-,N/A,,Clear,0,2013-07-08 03:15:00
10:35 PM,73.4,71.6,94,29.91,5.0,Calm,Calm,-,N/A,,Clear,0,2013-07-08 03:35:00
10:55 PM,71.6,69.8,94,29.91,3.0,Calm,Calm,-,N/A,,Partly Cloudy,0,2013-07-08 03:55:00
11:15 PM,71.6,69.8,94,29.90,4.0,East,3.5,-,N/A,,Clear,100,2013-07-08 04:15:00
11:35 PM,71.6,69.8,94,29.90,2.5,Calm,Calm,-,N/A,,Clear,0,2013-07-08 04:35:00
11:55 PM,73.4,69.8,88,29.89,5.0,Calm,Calm,-,N/A,,Clear,0,2013-07-08 04:55:00